Woody, CA

7:10 PM PST on February 10, 2016 (GMT -0800)
RAWS | | Change Station
CLOSE
Current Station
Personal Weather Station
Location: Woody, CA
Elevation: 1590 ft
Nearby Weather Stations

Elev 1590 ft 35.71 °N, 118.83 °W | Updated 57 minutes ago

Clear
Clear
55.0 °F
Feels Like 55.0 °F
N
5.0
Wind Variable Wind from ENE
Gusts 7.0 mph

Today
High -- | Low -- °F
--% Chance of Precip.
Yesterday
High -- | Low -- °F
Precip. -- in
Pressure 30.18 in
Visibility 7.0 miles
Clouds Clear
Dew Point 49.0 °F
Humidity 80%
Rainfall in
Snow Depth Not available.
6:47 AM 5:31 PM
Waxing Crescent, 9% visible
METAR KBFL 110254Z 00000KT 7SM CLR 16/09 A3018 RMK AO2 SLP219 T01560094 50005
Pressure 30.18 in
Visibility 7.0 miles
Clouds Clear
Dew Point 49.0 °F
Humidity 80%
Rainfall in
Snow Depth Not available.
6:47 AM 5:31 PM
Waxing Crescent, 9% visible
METAR KBFL 110254Z 00000KT 7SM CLR 16/09 A3018 RMK AO2 SLP219 T01560094 50005

10-Day Weather Forecast

Almanac

Astronomy

Feb. 10, 2016 Rise Set
Actual Time
Civil Twilight
Nautical Twilight
Astronomical Twilight
Moon
Length of Visible Light
Length of Day
Tomorrow will be .
, % of the Moon is Illuminated

Today's Extremes

State Highs State Lows

Community

WunderPhotos

Upload Photos

1,891,994 photos uploaded!

WunderBlog® & News

Nearby

Air Quality

  Air Quality AQ Index Pollutant
Not available.

Snow Depth

Station Depth Elevation

Earthquake Activity

City Distance Mag. Time & Date
Minimum magnitude displayed is 2.5.

Coastal Water Temperatures

Place Temperature

Stations

Nearby Weather Stations

Station Location Temp. Windchill Dew Point Humidity Wind Precip. Elev Updated Type
                   

Watches & Warnings

There are currently no watches in effect.